Nearby METAR Reports

 

LEVT - Vitoria, Spain
Distance from station: O 10km
Actualización: 21/10/2021 16:00
Muy nuboso
Muy nuboso
 Viento del N
Viento: N 15 km/h
Temperatura: 15°C
Rocío: 8°C
Humedad: 63%
Barómetro: 1021 hPa
Clouds: Muy nuboso
Visibility: 10 km
Cloud details: Few Clouds 914 m
Parcialmente nuboso 1097 m
Muy nuboso 1829 m
2021/10/21 14:00 LEVT 211400Z 01008KT 320V060 9999 FEW030 SCT036 BKN060 15/08 Q1021
LELO - Logrono/Agoncill, Spain
Distance from station: SSE 51km
Actualización: 21/10/2021 16:00
Muy nuboso
Muy nuboso
 Viento del ONO
Viento: ONO 7 km/h
Temperatura: 18°C
Rocío: 8°C
Humedad: 52%
Barómetro: 1020 hPa
Clouds: Muy nuboso
Visibility: 10 km
Cloud details: Few Clouds 914 m
Parcialmente nuboso 1280 m
Muy nuboso 1585 m
2021/10/21 14:00 LELO 211400Z 30004KT 250V350 9999 FEW030 SCT042 BKN052 18/08 Q1020
LEBB - Bilbao/Sondica, Spain
Distance from station: NNO 54km
Actualización: 21/10/2021 16:00
Parcialmente nuboso
Parcialmente nuboso
 Viento del NO
Viento: NO 22 km/h
Temperatura: 17°C
Rocío: 13°C
Humedad: 77%
Barómetro: 1021 hPa
Clouds: Parcialmente nuboso
Visibility: 10 km
Cloud details: Few Clouds 762 m
Parcialmente nuboso 1372 m
2021/10/21 14:00 LEBB 211400Z 31012KT 290V350 9999 FEW025 SCT045 17/13 Q1021 NOSIG
 
LEPP - Pamplona/Noain, Spain
Distance from station: E 78km
Actualización: 21/10/2021 16:00
Parcialmente nuboso
Parcialmente nuboso
 Viento del NO
Viento: NO 17 km/h
Temperatura: 17°C
Rocío: 8°C
Humedad: 56%
Barómetro: 1020 hPa
Clouds: Parcialmente nuboso
Visibility: 10 km
Cloud details: Parcialmente nuboso 1067 m
Parcialmente nuboso 1707 m
2021/10/21 14:00 LEPP 211400Z 31009KT 280V340 9999 SCT035 SCT056 17/08 Q1020
LESO - San Sebastian/Fu, Spain
Distance from station: NE 85km
Actualización: 21/10/2021 16:00
Muy nuboso
Muy nuboso
 Viento del O
Viento: O 9 km/h
Temperatura: 17°C
Rocío: 13°C
Humedad: 77%
Barómetro: 1021 hPa
Clouds: Muy nuboso
Visibility: 10 km
Cloud details: Muy nuboso 914 m
2021/10/21 14:00 LESO 211400Z 27005KT 200V320 9999 BKN030 17/13 Q1021
LEBG - Burgos/Villafria, Spain
Distance from station: SO 100km
Actualización: 21/10/2021 16:00
Parcialmente nuboso
Parcialmente nuboso
 Viento del N
Viento: N 11 km/h
Temperatura: 15°C
Rocío: 5°C
Humedad: 51%
Barómetro: 1020 hPa
Clouds: Parcialmente nuboso
Visibility: 10 km
Cloud details: Parcialmente nuboso 1372 m
Parcialmente nuboso 1524 m
2021/10/21 14:00 LEBG 211400Z 36006KT 9999 SCT045 SCT050 15/05 Q1020
 
LFBZ - Biarritz/Anglet, France
Distance from station: NE 111km
Actualización: 21/10/2021 16:00
Thunderstorm
Thunderstorm
 Viento del O
Viento: O 15 km/h
Temperatura: 15°C
Rocío: 13°C
Humedad: 88%
Barómetro: 1021 hPa
Clouds: Thunderstorm
Visibility: 10 km
Cloud details: Few Clouds 488 m
Parcialmente nuboso 792 m
Muy nuboso 1158 m
2021/10/21 14:00 LFBZ 211400Z AUTO 26008KT 210V290 9999 FEW016/// SCT026/// BKN038/// ///TCU 15/13 Q1021 TEMPO 30015G25KT 4000 SHRA BKN014 BKN030TCU
LEXJ - Santander/Paraya, Spain
Distance from station: ONO 117km
Actualización: 21/10/2021 16:00
Parcialmente nuboso
Parcialmente nuboso
 Viento del ONO
Viento: ONO 20 km/h
Temperatura: 17°C
Rocío: 12°C
Humedad: 73%
Barómetro: 1022 hPa
Clouds: Parcialmente nuboso
Visibility: 10 km
Cloud details: Few Clouds 792 m
Parcialmente nuboso 1067 m
2021/10/21 14:00 LEXJ 211400Z 30011KT 280V340 9999 FEW026 SCT035 17/12 Q1022